Time;durP1;ratioP1;P1;durP2;ratioP2;P2;SDS_P1;SDS_P2;PMS_P1;PMS_P2;Temp;Humidity;BMP_temperature;BMP_pressure;BME280_temperature;BME280_humidity;BME280_pressure;Samples;Min_cycle;Max_cycle;Signal;HPM_P1;HPM_P2
2021/12/02 00:01:19;;;;;;;33.55;31.85;;;;;;;20.13;43.62;99762.19;4956496;29;20035;-81
2021/12/02 00:03:47;;;;;;;32.75;31.15;;;;;;;20.12;43.58;99759.81;4940228;29;20031;-81
2021/12/02 00:06:15;;;;;;;34.22;32.53;;;;;;;20.12;43.28;99751.59;4956870;29;20027;-81
2021/12/02 00:08:41;;;;;;;32.33;30.63;;;;;;;20.09;43.58;99759.31;4956822;29;20464;-81
2021/12/02 00:11:07;;;;;;;35.05;33.15;;;;;;;20.08;43.12;99765.97;4956636;29;20040;-81
2021/12/02 00:14:23;;;;;;;33.15;31.40;;;;;;;20.08;43.51;99765.13;4957276;29;20046;-80
2021/12/02 00:21:25;;;;;;;33.03;31.23;;;;;;;20.05;43.21;99768.53;4956649;29;20085;-80
2021/12/02 00:23:55;;;;;;;34.08;32.28;;;;;;;20.05;43.16;99768.53;4956553;29;20383;-81
2021/12/02 00:26:21;;;;;;;32.58;30.77;;;;;;;20.03;43.44;99774.38;4956661;28;20028;-81
2021/12/02 00:28:56;;;;;;;32.05;30.45;;;;;;;20.03;43.39;99768.06;4956755;29;20534;-82
2021/12/02 00:31:24;;;;;;;32.83;31.10;;;;;;;20.02;43.33;99772.75;4939834;29;20031;-82
2021/12/02 00:33:53;;;;;;;33.17;31.48;;;;;;;20.01;43.00;99765.66;4956196;28;20031;-81
2021/12/02 00:36:20;;;;;;;;;;;;;;;20.00;43.12;99765.97;4956606;29;20106;-81
2021/12/02 00:38:47;;;;;;;32.88;31.17;;;;;;;19.99;43.30;99772.63;4955437;29;20009;-80
2021/12/02 00:41:16;;;;;;;35.75;33.78;;;;;;;19.98;42.97;99766.34;4956198;29;20563;-81
2021/12/02 00:43:42;;;;;;;32.58;30.98;;;;;;;19.98;43.13;99774.56;4956146;29;20058;-81
2021/12/02 00:46:10;;;;;;;34.47;32.78;;;;;;;19.97;43.16;99772.94;4955838;28;20046;-81
2021/12/02 00:48:37;;;;;;;32.95;31.27;;;;;;;19.97;43.04;99767.44;4956188;29;20031;-81
2021/12/02 00:51:04;;;;;;;33.35;31.65;;;;;;;19.96;42.85;99771.34;4956060;29;20094;-80
2021/12/02 00:53:33;;;;;;;31.98;30.38;;;;;;;19.95;42.98;99763.44;4955843;28;20066;-83
2021/12/02 00:56:04;;;;;;;31.85;30.35;;;;;;;19.94;43.05;99770.84;4955949;29;20065;-81
2021/12/02 00:58:32;;;;;;;33.03;31.42;;;;;;;19.94;42.97;99764.56;4938881;29;20058;-81
2021/12/02 01:00:59;;;;;;;32.58;30.67;;;;;;;19.93;42.90;99765.69;4955977;29;20129;-80
2021/12/02 01:03:33;;;;;;;32.85;31.25;;;;;;;19.92;42.78;99766.84;4955806;28;20031;-80
2021/12/02 01:05:59;;;;;;;33.63;31.92;;;;;;;19.91;43.07;99760.56;4956129;29;20457;-79
2021/12/02 01:08:27;;;;;;;32.50;30.95;;;;;;;19.91;43.09;99756.97;4954223;29;20081;-81
2021/12/02 01:10:53;;;;;;;33.53;31.65;;;;;;;19.90;43.15;99758.94;4954674;29;20035;-80
2021/12/02 01:13:19;;;;;;;35.53;33.72;;;;;;;19.89;43.09;99758.13;4955353;28;20499;-80
2021/12/02 01:15:44;;;;;;;32.30;30.70;;;;;;;19.89;43.02;99766.34;4955609;29;20035;-80
2021/12/02 01:18:10;;;;;;;34.88;32.97;;;;;;;19.88;42.89;99767.50;4955544;29;20031;-80
2021/12/02 01:20:37;;;;;;;31.98;30.38;;;;;;;19.87;43.14;99773.28;4955617;29;20035;-80
2021/12/02 01:23:04;;;;;;;33.00;31.38;;;;;;;19.86;42.87;99777.97;4938551;29;20385;-81
2021/12/02 01:25:33;;;;;;;33.05;31.45;;;;;;;19.85;42.83;99787.31;4955230;28;20509;-80
2021/12/02 01:27:59;;;;;;;33.47;31.70;;;;;;;19.84;42.85;99785.72;4955660;29;20066;-80
2021/12/02 01:30:29;;;;;;;32.35;30.80;;;;;;;19.84;42.70;99793.13;4955426;29;20066;-81
2021/12/02 01:33:06;;;;;;;32.88;31.17;;;;;;;19.83;42.88;99780.56;4955748;28;20031;-81
2021/12/02 01:35:34;;;;;;;32.15;30.45;;;;;;;19.82;42.77;99770.75;4938843;29;20043;-80
2021/12/02 01:38:01;;;;;;;32.30;30.67;;;;;;;19.81;43.00;99766.41;4938558;29;20054;-80
2021/12/02 01:40:27;;;;;;;32.42;30.83;;;;;;;19.80;42.80;99775.72;4955252;29;20523;-80
2021/12/02 01:42:57;;;;;;;32.13;30.42;;;;;;;19.79;42.75;99769.47;4955052;29;20035;-80
2021/12/02 01:45:29;;;;;;;33.13;31.52;;;;;;;19.78;43.05;99767.88;4937857;29;20035;-81
2021/12/02 01:47:58;;;;;;;32.40;30.80;;;;;;;19.78;42.94;99761.56;4954415;28;20058;-79
2021/12/02 01:50:26;;;;;;;33.15;31.55;;;;;;;19.77;43.05;99774.47;4955121;28;20487;-80
2021/12/02 01:52:57;;;;;;;32.65;31.05;;;;;;;19.76;42.79;99774.81;4955306;29;20189;-81
2021/12/02 01:55:25;;;;;;;33.53;31.83;;;;;;;19.76;42.92;99780.28;4955290;29;20031;-81
2021/12/02 01:58:00;;;;;;;31.70;30.10;;;;;;;19.74;43.00;99780.59;4955544;28;20163;-81
2021/12/02 02:00:41;;;;;;;31.50;29.90;;;;;;;19.73;42.83;99776.25;4955727;29;20054;-81
2021/12/02 02:03:08;;;;;;;32.53;30.80;;;;;;;19.72;43.01;99780.13;4954420;29;20380;-81
2021/12/02 02:05:33;;;;;;;33.08;31.48;;;;;;;19.72;43.04;99779.31;4955163;29;20035;-80
2021/12/02 02:08:10;;;;;;;32.92;31.25;;;;;;;19.71;42.85;99786.75;4955100;29;20138;-81
2021/12/02 02:10:39;;;;;;;31.20;29.60;;;;;;;19.70;42.67;99782.38;4955100;29;20073;-81
2021/12/02 02:13:09;;;;;;;31.25;29.65;;;;;;;19.69;43.04;99782.72;4955123;29;20027;-81
2021/12/02 02:15:44;;;;;;;32.03;30.30;;;;;;;19.67;42.98;99772.06;4939085;29;20039;-81
2021/12/02 02:18:18;;;;;;;30.55;29.08;;;;;;;19.66;42.61;99773.19;4955481;29;20035;-80
2021/12/02 02:21:03;;;;;;;31.70;30.17;;;;;;;19.66;42.79;99775.94;4955513;29;20358;-80
2021/12/02 02:23:32;;;;;;;31.98;30.33;;;;;;;19.64;42.75;99775.44;4954948;29;20031;-81
2021/12/02 02:25:57;;;;;;;;;;;;;;;19.62;42.90;99772.22;4955499;28;20081;-81
2021/12/02 02:28:23;;;;;;;32.90;31.20;;;;;;;19.61;42.74;99781.59;4954856;28;19997;-82
2021/12/02 02:30:49;;;;;;;30.60;29.10;;;;;;;19.60;43.12;99779.97;4953853;28;20039;-81
2021/12/02 02:33:17;;;;;;;31.80;30.20;;;;;;;19.59;42.90;99775.63;4954603;28;20181;-81
2021/12/02 02:35:43;;;;;;;30.50;29.00;;;;;;;19.58;42.86;99779.47;4955079;29;20098;-81
2021/12/02 02:38:09;;;;;;;32.13;30.42;;;;;;;19.58;43.25;99782.22;4937784;29;20062;-81
2021/12/02 02:40:39;;;;;;;31.27;29.75;;;;;;;19.56;43.11;99779.81;4953753;28;20087;-81
2021/12/02 02:43:08;;;;;;;30.33;28.83;;;;;;;19.56;42.80;99776.28;4954799;29;20038;-81
2021/12/02 02:45:36;;;;;;;31.75;30.23;;;;;;;19.55;42.67;99769.19;4938391;29;20031;-81
2021/12/02 02:48:03;;;;;;;32.40;30.75;;;;;;;19.54;42.89;99775.78;4955026;28;20054;-80
2021/12/02 02:50:31;;;;;;;32.80;31.20;;;;;;;19.54;42.94;99773.06;4954387;29;20477;-80
2021/12/02 02:53:09;;;;;;;31.63;30.02;;;;;;;19.53;43.00;99769.53;4955066;29;20082;-81
2021/12/02 02:55:35;;;;;;;30.95;29.45;;;;;;;19.51;43.04;99777.25;4955321;29;20043;-80
2021/12/02 03:00:37;;;;;;;30.50;29.00;;;;;;;19.49;43.16;99782.25;4957609;29;20059;-80
2021/12/02 03:03:40;;;;;;;31.67;29.98;;;;;;;19.49;42.96;99782.25;4957879;29;20039;-80
2021/12/02 03:06:19;;;;;;;30.45;29.02;;;;;;;19.48;43.11;99785.31;4956736;28;20039;-80
2021/12/02 03:08:56;;;;;;;32.28;30.73;;;;;;;19.46;43.11;99789.19;4958092;29;20027;-80
2021/12/02 03:11:22;;;;;;;31.80;30.15;;;;;;;19.45;43.02;99787.59;4958424;29;20166;-81
2021/12/02 03:13:52;;;;;;;31.17;29.67;;;;;;;19.45;43.02;99793.06;4957632;29;20491;-80
2021/12/02 03:19:27;;;;;;;32.10;30.45;;;;;;;19.43;42.97;99772.59;4936327;29;20035;-80
2021/12/02 03:21:54;;;;;;;30.30;28.77;;;;;;;19.43;43.04;99780.81;4954147;29;20066;-81
2021/12/02 03:24:20;;;;;;;32.92;31.23;;;;;;;19.42;43.32;99782.72;4957201;29;20063;-81
2021/12/02 03:26:47;;;;;;;32.55;30.95;;;;;;;19.41;42.91;99786.63;4957933;29;20035;-81
2021/12/02 03:29:12;;;;;;;32.63;30.85;;;;;;;19.41;43.00;99791.28;4957588;29;20126;-82
2021/12/02 03:31:38;;;;;;;31.77;30.17;;;;;;;19.40;43.14;99795.16;4957928;28;20059;-82
2021/12/02 03:34:05;;;;;;;31.55;29.95;;;;;;;19.40;43.01;99797.88;4957213;29;20038;-82
2021/12/02 03:36:30;;;;;;;32.75;31.15;;;;;;;19.39;42.95;99788.88;4957520;28;20546;-82
2021/12/02 03:38:56;;;;;;;31.58;29.98;;;;;;;19.39;43.10;99790.81;4957368;28;20031;-81
2021/12/02 03:41:23;;;;;;;33.75;31.90;;;;;;;19.38;43.16;99791.94;4957119;28;20059;-81
2021/12/02 03:43:49;;;;;;;32.08;30.40;;;;;;;19.37;43.11;99791.13;4957611;29;20086;-81
2021/12/02 03:46:18;;;;;;;31.15;29.65;;;;;;;19.36;43.05;99794.19;4939897;28;20039;-81
2021/12/02 03:48:43;;;;;;;30.50;28.90;;;;;;;19.34;42.93;99800.00;4956107;28;20535;-81
2021/12/02 03:51:10;;;;;;;30.98;29.48;;;;;;;19.34;43.23;99800.00;4957197;29;20138;-81
2021/12/02 03:53:36;;;;;;;30.65;29.17;;;;;;;19.33;42.91;99803.88;4957348;29;20039;-82
2021/12/02 03:56:04;;;;;;;31.20;29.50;;;;;;;19.32;42.96;99788.56;4957129;28;20369;-81
2021/12/02 03:58:30;;;;;;;31.80;30.20;;;;;;;19.30;42.98;99788.06;4957011;29;20058;-82
2021/12/02 04:00:56;;;;;;;31.40;29.85;;;;;;;19.30;42.94;99793.53;4956985;28;20424;-82
2021/12/02 04:03:22;;;;;;;31.63;30.02;;;;;;;19.29;43.06;99791.94;4956986;28;20138;-81
2021/12/02 04:05:47;;;;;;;31.25;29.67;;;;;;;19.29;43.02;99791.94;4956077;29;20528;-82
2021/12/02 04:08:12;;;;;;;31.08;29.58;;;;;;;19.28;43.00;99784.88;4956888;29;20480;-81
2021/12/02 04:10:40;;;;;;;31.90;30.20;;;;;;;19.28;42.99;99786.78;4956036;28;20039;-81
2021/12/02 04:13:18;;;;;;;30.27;28.77;;;;;;;19.28;43.12;99789.53;4956812;29;20077;-81
2021/12/02 04:15:49;;;;;;;31.23;29.63;;;;;;;19.27;43.10;99787.91;4956868;29;20054;-82
2021/12/02 04:18:15;;;;;;;30.83;29.30;;;;;;;19.26;43.24;99786.31;4956276;29;20058;-81
2021/12/02 04:20:40;;;;;;;30.58;29.08;;;;;;;19.24;43.15;99784.69;4956557;29;20425;-81
2021/12/02 04:23:06;;;;;;;29.95;28.55;;;;;;;19.23;43.11;99791.31;4956678;29;20110;-81
2021/12/02 04:25:31;;;;;;;31.75;30.15;;;;;;;19.24;42.88;99800.31;4939274;29;20130;-81
2021/12/02 04:27:57;;;;;;;30.60;29.10;;;;;;;19.23;43.01;99809.69;4956610;29;20031;-81
2021/12/02 04:30:26;;;;;;;31.40;29.58;;;;;;;19.21;43.08;99807.25;4956418;28;20443;-82
2021/12/02 04:32:53;;;;;;;30.70;29.20;;;;;;;19.21;42.91;99804.50;4956477;28;20070;-81
2021/12/02 04:35:18;;;;;;;31.02;29.52;;;;;;;19.21;43.06;99803.72;4939062;29;20032;-81
2021/12/02 04:37:44;;;;;;;31.80;30.30;;;;;;;19.19;43.10;99814.97;4939303;29;20046;-81
2021/12/02 04:40:14;;;;;;;30.52;29.02;;;;;;;19.19;43.10;99819.66;4956132;29;20122;-81
2021/12/02 04:42:40;;;;;;;29.63;28.13;;;;;;;19.18;42.80;99818.06;4956191;28;20027;-81
2021/12/02 04:45:06;;;;;;;30.67;29.17;;;;;;;19.18;42.78;99827.06;4956020;29;20042;-81
2021/12/02 04:47:31;;;;;;;33.03;31.27;;;;;;;19.17;42.72;99832.84;4955851;28;20066;-81
2021/12/02 04:49:57;;;;;;;30.08;28.58;;;;;;;19.16;42.83;99840.28;4956148;28;20497;-81
2021/12/02 04:52:22;;;;;;;30.42;28.85;;;;;;;19.15;42.86;99857.00;4955969;29;20038;-82
2021/12/02 04:54:47;;;;;;;30.38;28.90;;;;;;;19.15;42.73;99863.31;4955012;28;20050;-82
2021/12/02 04:57:13;;;;;;;31.95;30.35;;;;;;;19.14;42.76;99847.19;4954863;29;20388;-82
2021/12/02 04:59:38;;;;;;;30.75;29.25;;;;;;;19.12;42.81;99842.03;4954995;29;20164;-83
2021/12/02 05:02:04;;;;;;;31.98;30.40;;;;;;;19.11;42.75;99832.22;4955956;29;20031;-82
2021/12/02 05:04:29;;;;;;;32.80;31.00;;;;;;;19.10;42.72;99836.09;4956417;29;20086;-81
2021/12/02 05:06:55;;;;;;;30.77;29.27;;;;;;;19.10;42.73;99835.25;4955833;29;20078;-81
2021/12/02 05:09:20;;;;;;;31.33;29.67;;;;;;;19.09;42.53;99837.22;4955465;29;20035;-80
2021/12/02 05:11:45;;;;;;;31.23;29.70;;;;;;;19.08;42.71;99843.03;4955943;29;20499;-82
2021/12/02 05:14:11;;;;;;;31.25;29.65;;;;;;;19.07;42.88;99841.38;4954645;28;20404;-81
2021/12/02 05:16:37;;;;;;;31.98;30.27;;;;;;;19.06;42.73;99839.78;4954377;29;20062;-81
2021/12/02 05:19:03;;;;;;;30.40;28.90;;;;;;;19.06;42.84;99845.28;4955578;29;20039;-80
2021/12/02 05:21:28;;;;;;;31.50;29.90;;;;;;;19.06;42.80;99853.47;4955010;28;20043;-81
2021/12/02 05:23:54;;;;;;;30.55;29.00;;;;;;;19.05;42.88;99836.25;4956109;29;20531;-82
2021/12/02 05:26:23;;;;;;;30.90;29.30;;;;;;;19.04;42.91;99831.88;4938723;29;20042;-81
2021/12/02 05:28:53;;;;;;;30.48;28.98;;;;;;;19.03;42.82;99833.03;4955242;28;20487;-81
2021/12/02 05:31:20;;;;;;;31.38;29.77;;;;;;;19.02;43.00;99834.13;4954149;29;20031;-82
2021/12/02 05:33:45;;;;;;;31.63;30.02;;;;;;;19.02;42.92;99851.38;4953740;28;20063;-81
2021/12/02 05:36:11;;;;;;;31.30;29.70;;;;;;;19.01;42.89;99849.75;4955274;29;20071;-81
2021/12/02 05:38:38;;;;;;;32.38;30.67;;;;;;;19.01;43.08;99847.03;4955126;29;20114;-81
2021/12/02 05:41:04;;;;;;;30.83;29.23;;;;;;;19.00;43.17;99847.38;4955269;29;20118;-81
2021/12/02 05:43:30;;;;;;;30.67;29.10;;;;;;;19.00;42.96;99856.38;4955891;29;20035;-82
2021/12/02 05:45:56;;;;;;;31.02;29.33;;;;;;;18.99;43.14;99857.47;4955341;28;20165;-82
2021/12/02 05:48:21;;;;;;;30.08;28.58;;;;;;;18.99;43.04;99856.69;4954779;28;20411;-83
2021/12/02 05:50:47;;;;;;;30.35;28.85;;;;;;;18.98;42.98;99853.16;4955464;29;20039;-81
2021/12/02 05:53:12;;;;;;;30.23;28.67;;;;;;;18.98;43.11;99846.88;4955253;29;20037;-81
2021/12/02 05:55:38;;;;;;;32.10;30.40;;;;;;;18.97;43.16;99839.78;4955234;29;20060;-81
2021/12/02 05:58:03;;;;;;;30.48;28.88;;;;;;;18.97;43.23;99842.50;4938136;29;20040;-81
2021/12/02 06:00:29;;;;;;;31.27;29.67;;;;;;;18.96;43.10;99852.66;4954633;29;20531;-81
2021/12/02 06:02:54;;;;;;;29.17;27.77;;;;;;;18.96;43.05;99849.13;4938169;29;20042;-82
2021/12/02 06:05:20;;;;;;;30.02;28.52;;;;;;;18.96;43.13;99846.38;4955218;29;20031;-82
2021/12/02 06:07:49;;;;;;;30.70;29.20;;;;;;;18.95;43.12;99856.53;4954984;28;20036;-82
2021/12/02 06:10:16;;;;;;;30.15;28.65;;;;;;;18.96;43.14;99851.84;4955080;28;20031;-82
2021/12/02 06:12:41;;;;;;;31.08;29.48;;;;;;;18.95;43.14;99842.84;4938027;29;20514;-81
2021/12/02 06:15:07;;;;;;;30.95;29.35;;;;;;;18.96;43.29;99851.84;4954993;29;20055;-81
2021/12/02 06:17:33;;;;;;;31.90;30.13;;;;;;;18.94;43.13;99851.38;4954987;29;20476;-81
2021/12/02 06:19:58;;;;;;;30.08;28.65;;;;;;;18.93;43.07;99858.78;4954915;28;20031;-81
2021/12/02 06:22:24;;;;;;;30.35;28.58;;;;;;;18.93;43.38;99858.78;4955037;28;20039;-82
2021/12/02 06:25:16;;;;;;;29.85;28.35;;;;;;;18.93;43.31;99857.97;4954965;28;20057;-81
2021/12/02 06:27:34;;;;;;;30.20;28.70;;;;;;;18.92;43.41;99868.09;4940306;29;20079;-81
2021/12/02 06:30:00;;;;;;;30.48;28.98;;;;;;;18.91;43.34;99854.75;4954664;29;20059;-81
2021/12/02 06:32:25;;;;;;;29.77;28.33;;;;;;;18.90;43.21;99858.59;4937914;29;20040;-82
2021/12/02 06:34:51;;;;;;;29.55;28.15;;;;;;;18.89;43.24;99860.53;4959228;29;20035;-82
2021/12/02 06:37:16;;;;;;;29.90;28.50;;;;;;;18.89;43.20;99857.78;4958541;29;20031;-82
2021/12/02 06:39:41;;;;;;;31.40;29.65;;;;;;;18.88;43.24;99853.47;4941472;29;20031;-83
2021/12/02 06:42:07;;;;;;;31.65;29.95;;;;;;;18.88;43.03;99869.06;4958670;29;20111;-81
2021/12/02 06:44:32;;;;;;;31.25;29.67;;;;;;;18.87;43.62;99861.97;4958572;29;20380;-82
2021/12/02 06:46:58;;;;;;;30.38;28.88;;;;;;;18.88;43.32;99877.28;4958253;28;20035;-81
2021/12/02 06:49:24;;;;;;;30.30;28.73;;;;;;;18.85;43.22;99881.47;4941541;29;20155;-82
2021/12/02 06:51:49;;;;;;;30.25;28.63;;;;;;;18.85;43.40;99886.94;4957299;29;20050;-81
2021/12/02 06:54:15;;;;;;;31.83;30.25;;;;;;;18.85;43.25;99905.25;4958210;29;20027;-82
2021/12/02 06:56:40;;;;;;;31.35;29.75;;;;;;;18.85;43.04;99927.16;4958176;29;20555;-82
2021/12/02 06:59:05;;;;;;;30.17;28.67;;;;;;;18.84;43.13;99929.09;4957159;29;20038;-82
2021/12/02 07:01:33;;;;;;;30.13;28.52;;;;;;;18.83;42.98;99923.94;4940685;29;20515;-82
2021/12/02 07:03:58;;;;;;;30.63;29.02;;;;;;;18.83;43.13;99926.69;4957015;29;20033;-82
2021/12/02 07:06:24;;;;;;;30.60;29.10;;;;;;;18.81;42.88;99927.00;4957180;28;20027;-83
2021/12/02 07:08:49;;;;;;;30.10;28.50;;;;;;;18.81;43.04;99937.94;4940692;29;20494;-86
2021/12/02 07:11:14;;;;;;;30.17;28.58;;;;;;;18.80;43.06;99931.66;4941331;29;20056;-84
2021/12/02 07:13:40;;;;;;;31.15;29.55;;;;;;;18.79;43.20;99940.97;4958133;29;20035;-83
2021/12/02 07:16:06;;;;;;;30.20;28.75;;;;;;;18.78;42.87;99941.31;4957146;29;20046;-84
2021/12/02 07:18:36;;;;;;;29.65;28.15;;;;;;;18.77;42.80;99945.16;4956652;28;20444;-82
2021/12/02 07:21:02;;;;;;;28.90;27.50;;;;;;;18.75;43.07;99950.97;4957198;29;20420;-82
2021/12/02 07:23:27;;;;;;;28.75;27.35;;;;;;;18.75;43.02;99947.41;4958429;29;20456;-84
2021/12/02 07:25:52;;;;;;;29.60;28.08;;;;;;;18.74;42.77;99951.25;4957761;29;20091;-84
2021/12/02 07:28:19;;;;;;;29.60;28.20;;;;;;;18.72;42.86;99959.78;4957990;29;20035;-84
2021/12/02 07:30:51;;;;;;;30.13;28.63;;;;;;;18.71;42.98;99949.94;4941021;29;20035;-84
2021/12/02 07:33:18;;;;;;;30.85;29.25;;;;;;;18.71;42.87;99941.72;4957692;29;20031;-87
2021/12/02 07:35:44;;;;;;;30.77;29.17;;;;;;;18.69;42.95;99943.97;4957593;28;20051;-85
2021/12/02 07:38:09;;;;;;;29.83;28.40;;;;;;;18.69;42.95;99946.72;4957777;29;20456;-86
2021/12/02 07:40:36;;;;;;;28.95;27.48;;;;;;;18.69;42.88;99948.66;4957582;29;20028;-80
2021/12/02 07:43:03;;;;;;;28.88;27.48;;;;;;;18.69;43.00;99954.91;4941215;29;20038;-86
2021/12/02 07:45:36;;;;;;;29.15;27.75;;;;;;;18.68;43.13;99953.31;4956827;28;20035;-84
2021/12/02 07:48:06;;;;;;;29.60;28.10;;;;;;;18.69;43.24;99959.59;4957452;29;20055;-83
2021/12/02 07:50:34;;;;;;;29.10;27.60;;;;;;;18.66;43.02;99961.03;4940955;29;20081;-84
2021/12/02 07:53:02;;;;;;;30.20;28.65;;;;;;;18.67;43.53;99959.91;4958213;28;20035;-86
2021/12/02 07:55:28;;;;;;;;;;;;;;;18.66;43.53;99969.22;4958112;29;20115;-83
2021/12/02 07:57:54;;;;;;;30.33;28.63;;;;;;;18.66;43.59;99969.22;4958297;29;20439;-84
2021/12/02 08:00:23;;;;;;;29.63;27.10;;;;;;;18.70;44.10;99977.63;4940219;29;20395;-84
2021/12/02 08:02:51;;;;;;;29.35;27.42;;;;;;;18.72;44.47;99986.31;4940511;29;20038;-83
2021/12/02 08:05:17;;;;;;;27.52;25.92;;;;;;;18.75;44.43;99969.28;4956292;28;20070;-82
2021/12/02 08:07:44;;;;;;;29.67;28.02;;;;;;;18.77;44.54;99970.59;4958028;29;20035;-83
2021/12/02 08:10:14;;;;;;;28.92;27.23;;;;;;;18.80;45.01;99980.13;4956966;28;20391;-83
2021/12/02 08:12:45;;;;;;;29.08;27.45;;;;;;;18.84;44.97;99980.28;4956131;29;20031;-81
2021/12/02 08:15:11;;;;;;;28.92;27.42;;;;;;;18.88;45.03;99978.53;4957206;29;20588;-81
2021/12/02 08:17:36;;;;;;;27.95;26.55;;;;;;;18.92;45.26;99983.03;4961730;29;20059;-81
2021/12/02 08:20:03;;;;;;;28.95;27.33;;;;;;;18.97;44.85;99984.81;4955386;29;20050;-80
2021/12/02 08:22:30;;;;;;;28.00;26.60;;;;;;;19.00;44.84;99987.75;4957044;29;20122;-81
2021/12/02 08:24:55;;;;;;;30.23;28.52;;;;;;;19.05;44.87;99986.78;4956684;29;20550;-82
2021/12/02 08:27:22;;;;;;;29.58;28.08;;;;;;;19.10;44.79;99992.13;4956759;28;20070;-83
2021/12/02 08:29:48;;;;;;;30.02;28.13;;;;;;;19.13;44.71;99994.22;4940072;29;20035;-81
2021/12/02 08:32:13;;;;;;;29.73;28.20;;;;;;;19.16;44.45;99996.31;4956869;29;20090;-81
2021/12/02 08:34:39;;;;;;;29.33;27.40;;;;;;;19.20;44.50;99999.22;4956779;28;20035;-76
2021/12/02 08:37:06;;;;;;;30.35;28.73;;;;;;;19.26;44.30;100000.69;4956930;28;20039;-95
2021/12/02 08:39:32;;;;;;;30.27;27.70;;;;;;;19.30;44.19;100009.84;4939806;29;20038;-90
2021/12/02 08:41:58;;;;;;;30.98;28.83;;;;;;;19.35;44.25;100019.84;4940423;29;20039;-81
2021/12/02 08:44:25;;;;;;;29.15;27.45;;;;;;;19.40;44.26;100028.75;4957859;29;20089;-82
2021/12/02 08:46:51;;;;;;;31.75;29.08;;;;;;;19.43;44.07;100024.56;4940820;29;20435;-93
2021/12/02 08:49:19;;;;;;;30.33;28.73;;;;;;;19.47;43.84;100033.75;4955035;28;20403;-86
2021/12/02 08:51:45;;;;;;;30.30;28.25;;;;;;;19.51;43.85;100033.94;4955380;29;20099;-84
2021/12/02 08:54:12;;;;;;;31.17;28.70;;;;;;;19.55;42.75;100040.34;4955776;28;20464;-83
2021/12/02 08:56:39;;;;;;;33.17;31.38;;;;;;;19.57;42.27;100043.59;4955152;28;20039;-87
2021/12/02 08:59:04;;;;;;;31.83;29.70;;;;;;;19.59;41.66;100053.09;4955046;28;20595;-85
2021/12/02 09:01:30;;;;;;;31.02;28.83;;;;;;;19.61;41.84;100048.13;4954522;29;20043;-88
2021/12/02 09:03:56;;;;;;;32.25;30.60;;;;;;;19.63;42.16;100061.47;4938675;29;20038;-83
2021/12/02 09:06:22;;;;;;;32.10;30.17;;;;;;;19.65;42.30;100067.44;4938636;29;20046;-83
2021/12/02 09:08:51;;;;;;;31.50;29.60;;;;;;;19.68;42.63;100064.13;4955516;29;20036;-94
2021/12/02 09:11:17;;;;;;;31.38;28.95;;;;;;;19.70;42.73;100064.59;4939843;29;20058;-88
2021/12/02 09:13:42;;;;;;;31.00;29.33;;;;;;;19.74;42.87;100065.56;4939004;29;20118;-94
2021/12/02 09:16:08;;;;;;;33.20;31.45;;;;;;;19.76;43.04;100065.25;4938940;29;20366;-87
2021/12/02 09:18:33;;;;;;;32.10;30.42;;;;;;;19.80;43.30;100071.69;4954519;29;20081;-88
2021/12/02 09:20:59;;;;;;;32.78;30.98;;;;;;;19.84;43.44;100070.72;4939107;29;20449;-92
2021/12/02 09:23:26;;;;;;;31.50;29.85;;;;;;;19.87;43.41;100077.50;4957568;29;20058;-90
2021/12/02 09:25:51;;;;;;;33.92;31.98;;;;;;;19.89;43.70;100078.78;4955479;29;20030;-87
2021/12/02 09:28:17;;;;;;;32.88;30.90;;;;;;;19.93;43.69;100075.41;4938510;29;20193;-86
2021/12/02 09:30:43;;;;;;;32.40;30.65;;;;;;;19.96;43.80;100086.56;4938445;29;20039;-87
2021/12/02 09:33:08;;;;;;;32.97;31.25;;;;;;;19.99;43.55;100085.91;4954215;29;20074;-87
2021/12/02 09:35:35;;;;;;;32.30;30.60;;;;;;;20.02;43.88;100084.44;4938596;29;20118;-84
2021/12/02 09:38:01;;;;;;;34.35;32.55;;;;;;;20.04;43.71;100090.41;4955444;28;20035;-84
2021/12/02 09:40:27;;;;;;;32.80;31.17;;;;;;;20.07;43.70;100095.25;4938071;29;20078;-85
2021/12/02 09:42:53;;;;;;;32.38;30.65;;;;;;;20.10;43.88;100097.34;4938608;29;20081;-82
2021/12/02 09:45:19;;;;;;;32.50;30.80;;;;;;;20.13;43.91;100090.41;4938784;29;20039;-86
2021/12/02 09:47:47;;;;;;;33.15;31.52;;;;;;;20.15;43.87;100093.66;4937930;29;20101;-82
2021/12/02 09:50:18;;;;;;;;;;;;;;;20.15;43.85;100097.19;4955326;28;20047;-86
2021/12/02 09:52:45;;;;;;;31.85;30.15;;;;;;;20.17;43.69;100092.19;4937990;29;19957;-85
2021/12/02 09:57:45;;;;;;;33.92;32.13;;;;;;;20.23;43.50;100101.06;4954916;29;20042;-85
2021/12/02 10:00:17;;;;;;;34.40;32.70;;;;;;;20.25;43.83;100110.56;4938019;29;20396;-84
2021/12/02 10:02:52;;;;;;;33.47;31.88;;;;;;;20.28;43.62;100109.13;4938408;29;20535;-84
2021/12/02 10:05:38;;;;;;;34.15;32.45;;;;;;;20.30;44.02;100118.63;4955071;29;20043;-86
2021/12/02 10:08:07;;;;;;;35.53;33.72;;;;;;;20.32;43.71;100115.56;4956664;28;20071;-82
2021/12/02 10:10:37;;;;;;;33.90;32.20;;;;;;;20.35;43.53;100117.66;4957691;29;20027;-81
2021/12/02 10:13:25;;;;;;;35.40;33.55;;;;;;;20.36;44.00;100122.03;4958856;29;20464;-81
2021/12/02 10:16:04;;;;;;;34.60;32.70;;;;;;;20.38;43.65;100121.69;4958736;29;20062;-86
2021/12/02 10:19:06;;;;;;;33.88;32.08;;;;;;;20.39;43.45;100117.84;4958937;29;20527;-85
2021/12/02 10:21:39;;;;;;;34.25;32.45;;;;;;;20.39;42.82;100126.88;4958185;29;20526;-83
2021/12/02 10:24:08;;;;;;;34.17;32.47;;;;;;;20.40;42.79;100127.69;4941175;29;20054;-85
2021/12/02 10:26:37;;;;;;;34.53;32.55;;;;;;;20.39;42.68;100124.13;4958557;29;20027;-85
2021/12/02 10:29:12;;;;;;;36.28;34.28;;;;;;;20.39;42.60;100132.38;4958356;29;20512;-86
2021/12/02 10:31:38;;;;;;;34.10;32.50;;;;;;;20.39;42.55;100135.09;4957793;29;20377;-82
2021/12/02 10:34:07;;;;;;;36.17;34.20;;;;;;;20.40;42.39;100133.16;4941554;29;20063;-83
2021/12/02 10:36:40;;;;;;;;;;;;;;;20.38;42.16;100132.66;4942071;29;20039;-82
2021/12/02 10:39:12;;;;;;;34.50;32.53;;;;;;;20.38;42.26;100122.50;4941179;29;20304;-83
2021/12/02 10:41:42;;;;;;;33.63;31.92;;;;;;;20.38;42.41;100130.72;4957245;28;20050;-82
2021/12/02 10:44:24;;;;;;;35.45;33.67;;;;;;;20.38;42.22;100124.44;4957491;29;20321;-83
2021/12/02 10:46:57;;;;;;;34.30;32.28;;;;;;;20.39;42.35;100117.84;4957504;29;20460;-79
2021/12/02 10:49:25;;;;;;;34.25;32.30;;;;;;;20.39;42.47;100117.84;4958085;28;20035;-82
2021/12/02 10:51:53;;;;;;;35.38;33.60;;;;;;;20.40;42.48;100125.72;4956727;29;20031;-81
2021/12/02 10:54:25;;;;;;;34.80;32.92;;;;;;;20.42;42.63;100125.41;4941695;29;20106;-80
2021/12/02 10:56:53;;;;;;;35.85;34.00;;;;;;;20.44;42.45;100132.19;4956762;29;20023;-81
2021/12/02 10:59:24;;;;;;;35.25;33.35;;;;;;;20.46;42.51;100140.09;4958150;29;20061;-80
2021/12/02 11:01:50;;;;;;;33.40;31.33;;;;;;;20.47;42.41;100147.19;4957943;28;20101;-82
2021/12/02 11:04:15;;;;;;;33.45;31.75;;;;;;;20.49;42.82;100147.69;4941009;29;20035;-82
2021/12/02 11:06:43;;;;;;;33.90;32.20;;;;;;;20.50;42.81;100154.78;4941088;29;20046;-84
2021/12/02 11:09:32;;;;;;;33.17;31.38;;;;;;;20.52;42.66;100156.06;4956591;29;20028;-83
2021/12/02 11:12:11;;;;;;;33.92;32.20;;;;;;;20.53;42.68;100159.63;4956562;28;20019;-85
2021/12/02 11:14:52;;;;;;;34.28;32.58;;;;;;;20.53;42.71;100160.41;4957271;29;20166;-83
2021/12/02 11:17:18;;;;;;;34.20;32.55;;;;;;;20.56;42.73;100160.94;4957731;29;20027;-83
2021/12/02 11:19:46;;;;;;;34.55;32.75;;;;;;;20.57;42.62;100165.31;4956418;28;20027;-83
2021/12/02 11:22:17;;;;;;;34.25;32.65;;;;;;;20.58;42.75;100172.41;4940674;29;20043;-84
2021/12/02 11:24:45;;;;;;;34.45;32.65;;;;;;;20.59;42.38;100174.81;4958467;29;20031;-83
2021/12/02 11:27:21;;;;;;;34.65;32.97;;;;;;;20.60;42.64;100172.88;4957523;29;20472;-81
2021/12/02 11:29:53;;;;;;;34.53;32.90;;;;;;;20.61;42.75;100172.53;4956282;29;20049;-84
2021/12/02 11:32:29;;;;;;;34.90;33.20;;;;;;;20.61;42.58;100180.78;4957828;29;20034;-81
2021/12/02 11:35:07;;;;;;;37.00;35.10;;;;;;;20.62;42.54;100184.34;4956617;28;20039;-93